Time;durP1;ratioP1;P1;durP2;ratioP2;P2;SDS_P1;SDS_P2;PMS_P1;PMS_P2;Temp;Humidity;BMP_temperature;BMP_pressure;BME280_temperature;BME280_humidity;BME280_pressure;Samples;Min_cycle;Max_cycle;Signal;HPM_P1;HPM_P2
2022/12/14 00:00:39;;;;;;;0.25;0.25;;;;;;;-3.02;98.29;100484.28;4913131;28;20039;-72
2022/12/14 00:03:05;;;;;;;0.30;0.30;;;;;;;-2.87;97.92;100492.66;4923704;28;20042;-72
2022/12/14 00:05:30;;;;;;;0.30;0.30;;;;;;;-3.15;97.91;100454.00;4929269;29;20039;-72
2022/12/14 00:07:55;;;;;;;0.20;0.20;;;;;;;-3.04;99.16;100487.84;4914892;29;20035;-72
2022/12/14 00:10:21;;;;;;;0.30;0.30;;;;;;;-3.16;98.76;100462.78;4940854;28;20039;-71
2022/12/14 00:12:47;;;;;;;0.30;0.30;;;;;;;-3.01;98.49;100474.63;4916101;28;20364;-72
2022/12/14 00:15:12;;;;;;;0.30;0.30;;;;;;;-3.13;99.54;100481.09;4913454;28;20066;-71
2022/12/14 00:17:38;;;;;;;0.30;0.30;;;;;;;-3.11;99.57;100483.66;4925316;29;20131;-71
2022/12/14 00:20:04;;;;;;;0.30;0.30;;;;;;;-3.20;100.00;100476.91;4918581;28;20031;-71
2022/12/14 00:22:29;;;;;;;0.30;0.30;;;;;;;-3.37;99.52;100449.34;4931060;29;20536;-72
2022/12/14 00:24:55;;;;;;;0.30;0.30;;;;;;;-3.44;100.00;100447.75;4927695;29;20470;-72
2022/12/14 00:27:20;;;;;;;0.30;0.30;;;;;;;-3.29;100.00;100471.88;4928162;28;20114;-72
2022/12/14 00:29:45;;;;;;;0.30;0.30;;;;;;;-3.39;99.27;100459.00;4932636;28;20390;-72
2022/12/14 00:32:10;;;;;;;0.30;0.30;;;;;;;-3.51;99.99;100439.19;4928135;28;20476;-72
2022/12/14 00:34:36;;;;;;;0.30;0.30;;;;;;;-3.31;100.00;100472.78;4938086;28;20039;-72
2022/12/14 00:37:01;;;;;;;0.30;0.30;;;;;;;-3.39;99.81;100461.63;4929523;29;20240;-72
2022/12/14 00:39:26;;;;;;;0.30;0.30;;;;;;;-3.43;100.00;100459.09;4928796;29;20047;-72
2022/12/14 00:41:52;;;;;;;0.30;0.30;;;;;;;-3.39;100.00;100471.25;4937148;28;20035;-72
2022/12/14 00:44:17;;;;;;;0.30;0.30;;;;;;;-3.41;100.00;100471.31;4912146;29;20039;-73
2022/12/14 00:46:42;;;;;;;0.30;0.30;;;;;;;-3.46;100.00;100454.81;4923468;28;20593;-72
2022/12/14 00:49:09;;;;;;;0.30;0.30;;;;;;;-3.53;100.00;100453.22;4924490;29;20041;-72
2022/12/14 00:51:34;;;;;;;0.30;0.30;;;;;;;-3.43;100.00;100453.84;4923482;28;20066;-71
2022/12/14 00:53:59;;;;;;;0.30;0.30;;;;;;;-3.47;100.00;100439.97;4939007;28;20687;-71
2022/12/14 00:56:25;;;;;;;0.30;0.30;;;;;;;-3.58;100.00;100423.66;4939665;28;20080;-72
2022/12/14 00:58:51;;;;;;;0.30;0.30;;;;;;;-3.49;100.00;100450.50;4937496;28;20039;-72
2022/12/14 01:01:16;;;;;;;0.30;0.30;;;;;;;-3.47;100.00;100442.59;4941699;28;20050;-72
2022/12/14 01:03:42;;;;;;;0.30;0.30;;;;;;;-3.78;100.00;100398.75;4935102;28;20043;-72
2022/12/14 01:06:21;;;;;;;0.30;0.30;;;;;;;-3.63;100.00;100424.63;4926983;28;20035;-72
2022/12/14 01:08:47;;;;;;;0.30;0.30;;;;;;;-3.55;100.00;100427.03;4925311;28;20496;-71
2022/12/14 01:11:13;;;;;;;0.30;0.30;;;;;;;-3.79;100.00;100371.69;4902012;28;20624;-72
2022/12/14 01:13:39;;;;;;;0.30;0.30;;;;;;;-3.56;100.00;100408.69;4936986;28;20344;-72
2022/12/14 01:16:10;;;;;;;0.30;0.30;;;;;;;-3.45;100.00;100403.19;4922633;28;20469;-71
2022/12/14 01:18:36;;;;;;;0.30;0.30;;;;;;;-3.39;99.98;100403.00;4924937;28;20035;-72
2022/12/14 01:21:12;;;;;;;0.30;0.30;;;;;;;-3.43;99.83;100404.84;4922781;28;20043;-72
2022/12/14 01:23:38;;;;;;;0.30;0.30;;;;;;;-3.37;99.93;100406.44;4935923;28;20031;-72
2022/12/14 01:26:03;;;;;;;0.20;0.20;;;;;;;-3.35;99.82;100402.00;4938493;28;20094;-72
2022/12/14 01:28:29;;;;;;;0.30;0.30;;;;;;;-3.35;99.30;100407.28;4942809;28;20139;-71
2022/12/14 01:30:54;;;;;;;0.30;0.30;;;;;;;-3.47;100.00;100385.72;4924380;28;20122;-71
2022/12/14 01:33:20;;;;;;;0.30;0.30;;;;;;;-3.37;99.94;100381.06;4920172;28;20497;-72
2022/12/14 01:35:45;;;;;;;0.30;0.30;;;;;;;-3.36;100.00;100395.03;4923977;28;20039;-72
2022/12/14 01:38:10;;;;;;;0.30;0.30;;;;;;;-3.48;100.00;100386.63;4938297;28;20065;-72
2022/12/14 01:40:36;;;;;;;0.30;0.30;;;;;;;-3.55;100.00;100385.03;4922387;28;20047;-72
2022/12/14 01:43:01;;;;;;;0.30;0.30;;;;;;;-3.55;100.00;100374.56;4922421;29;20054;-72
2022/12/14 01:45:26;;;;;;;0.30;0.30;;;;;;;-3.58;100.00;100356.25;4935968;28;20048;-72
2022/12/14 01:47:57;;;;;;;0.30;0.30;;;;;;;-3.43;99.27;100396.09;4939387;28;20532;-72
2022/12/14 01:50:33;;;;;;;0.20;0.20;;;;;;;-3.36;99.78;100397.66;4937204;28;20039;-72
2022/12/14 01:53:02;;;;;;;0.30;0.30;;;;;;;-3.37;99.16;100401.19;4919401;29;20044;-72
2022/12/14 01:55:39;;;;;;;0.30;0.30;;;;;;;-3.48;98.24;100384.00;4937025;28;20031;-72
2022/12/14 01:58:10;;;;;;;0.30;0.30;;;;;;;-3.63;98.43;100363.38;4929514;28;20031;-72
2022/12/14 02:00:35;;;;;;;0.30;0.30;;;;;;;-3.46;98.77;100394.44;4937316;28;20078;-72
2022/12/14 02:03:05;;;;;;;0.30;0.30;;;;;;;-3.51;98.31;100391.06;4926838;29;20039;-72
2022/12/14 02:05:34;;;;;;;0.30;0.30;;;;;;;-3.64;98.86;100373.03;4946976;28;20050;-72
2022/12/14 02:08:00;;;;;;;0.30;0.30;;;;;;;-3.50;98.68;100388.41;4938858;28;20031;-72
2022/12/14 02:10:27;;;;;;;0.30;0.30;;;;;;;-3.50;99.06;100384.91;4923991;29;20047;-72
2022/12/14 02:13:13;;;;;;;0.30;0.30;;;;;;;-3.58;99.53;100385.13;4940753;28;20038;-72
2022/12/14 02:15:40;;;;;;;0.30;0.30;;;;;;;-3.49;98.72;100378.75;4932197;28;20036;-72
2022/12/14 02:18:08;;;;;;;0.30;0.30;;;;;;;-3.54;98.02;100375.41;4948183;28;20085;-72
2022/12/14 02:21:13;;;;;;;0.30;0.30;;;;;;;-3.57;97.24;100367.59;4928017;28;20118;-72
2022/12/14 02:24:03;;;;;;;0.20;0.20;;;;;;;-3.58;97.49;100368.53;4914873;29;20429;-72
2022/12/14 02:26:54;;;;;;;0.30;0.30;;;;;;;-3.61;97.30;100364.22;4926862;29;20864;-72
2022/12/14 02:29:29;;;;;;;0.30;0.30;;;;;;;-3.56;97.82;100364.94;4920326;29;20046;-72
2022/12/14 02:32:04;;;;;;;0.30;0.30;;;;;;;-3.53;97.29;100362.25;4923133;29;20042;-72
2022/12/14 02:34:30;;;;;;;;;;;;;;;-3.54;97.57;100351.78;4952575;28;20031;-72
2022/12/14 02:37:00;;;;;;;0.30;0.30;;;;;;;-3.57;97.74;100357.97;4940824;28;19914;-72
2022/12/14 02:39:55;;;;;;;0.30;0.30;;;;;;;-3.51;97.42;100363.06;4924948;28;20027;-72
2022/12/14 02:42:25;;;;;;;0.30;0.30;;;;;;;-3.48;96.80;100355.13;4946220;28;20034;-72
2022/12/14 02:44:57;;;;;;;0.30;0.30;;;;;;;-3.50;96.06;100337.66;4927960;29;20082;-72
2022/12/14 02:47:27;;;;;;;0.22;0.22;;;;;;;-3.45;97.21;100348.91;4946844;28;20042;-72
2022/12/14 02:50:02;;;;;;;0.30;0.30;;;;;;;-3.48;96.09;100344.63;4946524;28;20035;-72
2022/12/14 02:52:46;;;;;;;0.30;0.30;;;;;;;-3.49;96.82;100344.63;4915626;29;20027;-72
2022/12/14 02:55:19;;;;;;;0.30;0.30;;;;;;;-3.54;96.14;100347.41;4939866;28;20107;-72
2022/12/14 02:57:56;;;;;;;0.30;0.30;;;;;;;-3.51;96.13;100349.94;4933576;28;20039;-72
2022/12/14 03:00:23;;;;;;;0.30;0.30;;;;;;;-3.57;96.54;100333.47;4934365;28;20122;-72
2022/12/14 03:02:48;;;;;;;0.30;0.30;;;;;;;-3.49;96.88;100357.75;4935178;28;20073;-72
2022/12/14 03:05:14;;;;;;;0.30;0.30;;;;;;;-3.53;97.71;100361.38;4927911;29;20114;-72
2022/12/14 03:07:44;;;;;;;0.30;0.30;;;;;;;-3.56;97.94;100348.31;4936481;28;20031;-72
2022/12/14 03:10:18;;;;;;;0.30;0.30;;;;;;;-3.66;98.72;100329.34;4936066;28;20158;-72
2022/12/14 03:12:47;;;;;;;0.30;0.30;;;;;;;-3.58;98.98;100345.75;4926418;28;20030;-72
2022/12/14 03:15:14;;;;;;;0.30;0.30;;;;;;;-3.56;98.74;100341.34;4926483;29;20031;-72
2022/12/14 03:17:41;;;;;;;0.30;0.30;;;;;;;-3.56;99.33;100350.94;4926535;29;20039;-72
2022/12/14 03:20:10;;;;;;;0.30;0.30;;;;;;;-3.71;100.00;100341.75;4941795;28;20035;-72
2022/12/14 03:22:38;;;;;;;0.30;0.30;;;;;;;-3.68;99.58;100341.66;4941078;28;20385;-72
2022/12/14 03:25:13;;;;;;;0.30;0.30;;;;;;;-3.76;100.00;100336.63;4927873;29;20054;-72
2022/12/14 03:27:45;;;;;;;0.30;0.30;;;;;;;-3.74;100.00;100344.47;4933092;28;20040;-72
2022/12/14 03:30:13;;;;;;;0.30;0.30;;;;;;;-3.66;100.00;100338.09;4935622;28;20544;-72
2022/12/14 03:32:43;;;;;;;0.30;0.30;;;;;;;-3.63;97.42;100327.53;4923586;28;20058;-72
2022/12/14 03:35:15;;;;;;;0.30;0.30;;;;;;;-3.63;97.69;100332.78;4929386;28;20043;-72
2022/12/14 03:37:51;;;;;;;0.30;0.30;;;;;;;-3.64;96.09;100330.16;4908207;28;20032;-72
2022/12/14 03:40:17;;;;;;;0.30;0.30;;;;;;;-3.55;96.16;100332.56;4921843;29;20086;-72
2022/12/14 03:43:10;;;;;;;0.20;0.20;;;;;;;-3.51;96.92;100320.19;4920164;29;20647;-72
2022/12/14 03:45:56;;;;;;;0.30;0.30;;;;;;;-3.80;95.18;100285.13;4909849;28;20726;-72
2022/12/14 03:48:36;;;;;;;0.30;0.30;;;;;;;-3.57;95.62;100315.13;4924516;28;20089;-73
2022/12/14 03:51:05;;;;;;;0.30;0.30;;;;;;;-3.58;95.65;100318.66;4940429;28;20418;-72
2022/12/14 03:53:43;;;;;;;0.30;0.30;;;;;;;-3.81;95.76;100286.91;4944336;28;20102;-72
2022/12/14 03:56:18;;;;;;;0.30;0.30;;;;;;;-3.67;96.33;100301.38;4922993;28;20039;-72
2022/12/14 03:59:01;;;;;;;0.30;0.30;;;;;;;-3.68;98.19;100297.03;4919067;29;20037;-72
2022/12/14 04:01:35;;;;;;;0.30;0.30;;;;;;;-3.60;98.27;100308.19;4924642;28;20034;-72
2022/12/14 04:04:09;;;;;;;0.30;0.30;;;;;;;-3.62;97.52;100297.75;4921335;28;20047;-72
2022/12/14 04:06:48;;;;;;;0.30;0.30;;;;;;;-3.63;96.67;100289.91;4925666;28;20102;-72
2022/12/14 04:09:35;;;;;;;0.28;0.28;;;;;;;-3.63;97.62;100277.66;4910191;28;20125;-72
2022/12/14 04:18:55;;;;;;;0.30;0.30;;;;;;;-3.60;98.17;100287.19;4948414;28;20156;-72
2022/12/14 04:20:57;;;;;;;0.30;0.30;;;;;;;-3.77;97.48;100251.81;4895351;29;20077;-72
2022/12/14 04:26:22;;;;;;;0.30;0.30;;;;;;;-3.67;96.81;100269.91;4933623;28;20073;-72
2022/12/14 04:31:39;;;;;;;0.30;0.30;;;;;;;-3.69;97.37;100272.59;4930760;29;20117;-72
2022/12/14 04:34:05;;;;;;;0.30;0.30;;;;;;;-4.01;96.18;100215.78;4912106;28;20485;-72
2022/12/14 04:36:59;;;;;;;0.30;0.30;;;;;;;-3.73;96.96;100260.44;4933375;29;20482;-72
2022/12/14 04:39:36;;;;;;;0.30;0.30;;;;;;;-3.80;96.70;100227.41;4937537;28;20087;-72
2022/12/14 04:42:02;;;;;;;0.30;0.30;;;;;;;-3.75;96.95;100233.38;4937824;28;20051;-72
2022/12/14 04:44:30;;;;;;;0.30;0.30;;;;;;;-3.62;95.50;100244.41;4910116;28;20036;-72
2022/12/14 04:46:56;;;;;;;0.30;0.30;;;;;;;-3.56;96.10;100248.59;4923284;29;20754;-72
2022/12/14 04:49:34;;;;;;;0.30;0.30;;;;;;;-3.73;95.24;100223.72;4931574;28;20114;-72
2022/12/14 04:52:11;;;;;;;0.30;0.30;;;;;;;-3.72;96.48;100214.09;4948559;28;20139;-72
2022/12/14 04:54:44;;;;;;;0.30;0.30;;;;;;;-3.59;97.09;100231.19;4914611;28;20031;-72
2022/12/14 04:57:19;;;;;;;0.35;0.35;;;;;;;-3.57;96.56;100239.88;4936623;28;20042;-72
2022/12/14 04:59:45;;;;;;;0.30;0.30;;;;;;;-3.61;95.74;100233.00;4926717;29;20042;-72
2022/12/14 05:02:19;;;;;;;0.30;0.30;;;;;;;-3.53;96.19;100244.13;4938291;28;20035;-72
2022/12/14 05:05:16;;;;;;;0.30;0.30;;;;;;;-3.52;95.85;100232.75;4923086;29;20027;-72
2022/12/14 05:07:49;;;;;;;0.30;0.30;;;;;;;-3.55;96.39;100227.56;4922248;28;20123;-72
2022/12/14 05:10:26;;;;;;;0.30;0.30;;;;;;;-3.51;94.83;100223.09;4924999;29;20063;-72
2022/12/14 05:12:56;;;;;;;0.30;0.30;;;;;;;-3.53;94.83;100222.25;4936490;28;20106;-72
2022/12/14 05:15:25;;;;;;;0.30;0.30;;;;;;;-3.56;94.52;100210.09;4926322;29;20208;-72
2022/12/14 05:17:51;;;;;;;0.40;0.40;;;;;;;-3.50;94.98;100195.94;4926378;28;20028;-72
2022/12/14 05:20:22;;;;;;;0.30;0.30;;;;;;;-3.43;95.53;100209.72;4912309;29;20516;-72
2022/12/14 05:22:48;;;;;;;0.20;0.20;;;;;;;-3.43;93.55;100220.22;4920642;28;20474;-72
2022/12/14 05:25:13;;;;;;;0.22;0.22;;;;;;;-3.70;93.88;100167.66;4922728;28;20034;-72
2022/12/14 05:27:39;;;;;;;0.30;0.30;;;;;;;-3.52;93.57;100189.88;4916373;28;20035;-72
2022/12/14 05:30:05;;;;;;;0.30;0.30;;;;;;;-3.54;95.66;100184.69;4940111;28;20512;-73
2022/12/14 05:32:31;;;;;;;0.30;0.30;;;;;;;-3.51;95.12;100199.47;4939820;28;20063;-72
2022/12/14 05:34:56;;;;;;;0.30;0.30;;;;;;;-3.46;94.02;100192.31;4920461;29;20106;-72
2022/12/14 05:37:23;;;;;;;0.30;0.30;;;;;;;-3.63;94.88;100169.19;4934980;28;20114;-72
2022/12/14 05:39:49;;;;;;;0.30;0.30;;;;;;;-3.47;94.39;100198.47;4937218;28;20019;-73
2022/12/14 05:42:14;;;;;;;0.30;0.30;;;;;;;-3.45;93.44;100198.44;4942621;28;20041;-73
2022/12/14 05:44:40;;;;;;;0.20;0.20;;;;;;;-3.47;93.88;100196.72;4942472;28;20038;-73
2022/12/14 05:47:05;;;;;;;0.30;0.30;;;;;;;-3.57;93.74;100190.03;4945888;28;20048;-73
2022/12/14 05:49:30;;;;;;;0.30;0.30;;;;;;;-3.41;93.76;100205.28;4949009;28;20059;-73
2022/12/14 05:51:56;;;;;;;0.30;0.30;;;;;;;-3.53;94.82;100190.78;4934402;28;20645;-73
2022/12/14 05:54:21;;;;;;;0.30;0.30;;;;;;;-3.51;94.67;100195.09;4956221;28;20069;-74
2022/12/14 05:56:47;;;;;;;0.30;0.30;;;;;;;-3.55;94.46;100189.97;4933691;28;20457;-73
2022/12/14 05:59:14;;;;;;;0.20;0.20;;;;;;;-3.72;93.54;100165.09;4944480;28;20027;-73
2022/12/14 06:01:41;;;;;;;0.25;0.25;;;;;;;-3.48;94.12;100199.38;4933061;28;20583;-73
2022/12/14 06:04:06;;;;;;;0.30;0.30;;;;;;;-3.51;93.80;100199.47;4930131;29;20035;-73
2022/12/14 06:06:32;;;;;;;0.30;0.30;;;;;;;-3.65;94.32;100163.13;4945616;28;20030;-73
2022/12/14 06:08:58;;;;;;;0.30;0.30;;;;;;;-3.50;95.73;100193.31;4946793;28;20023;-73
2022/12/14 06:11:23;;;;;;;0.30;0.30;;;;;;;-3.60;96.95;100178.75;4932530;28;20039;-73
2022/12/14 06:13:49;;;;;;;0.30;0.30;;;;;;;-3.58;96.36;100192.69;4933757;29;20114;-73
2022/12/14 06:16:20;;;;;;;0.30;0.30;;;;;;;-3.60;95.29;100197.97;4938604;28;20078;-73
2022/12/14 06:18:53;;;;;;;0.20;0.20;;;;;;;-3.62;94.82;100189.28;4922467;29;20280;-73
2022/12/14 06:21:21;;;;;;;0.30;0.30;;;;;;;-3.59;95.10;100190.97;4943302;28;20065;-73
2022/12/14 06:23:47;;;;;;;0.20;0.20;;;;;;;-3.66;96.08;100170.16;4940046;28;20066;-73
2022/12/14 06:26:13;;;;;;;0.30;0.30;;;;;;;-3.53;96.73;100180.28;4933531;28;20093;-73
2022/12/14 06:28:39;;;;;;;0.30;0.30;;;;;;;-3.62;96.87;100168.28;4928992;29;20461;-73
2022/12/14 06:31:04;;;;;;;0.30;0.30;;;;;;;-3.64;96.45;100170.97;4947707;28;20106;-73
2022/12/14 06:33:32;;;;;;;0.30;0.30;;;;;;;-3.55;96.17;100187.34;4941375;28;20038;-73
2022/12/14 06:35:57;;;;;;;0.20;0.20;;;;;;;-3.52;96.01;100197.75;4954990;28;20078;-73
2022/12/14 06:38:22;;;;;;;0.30;0.30;;;;;;;-3.68;96.08;100171.97;4910142;29;20062;-74
2022/12/14 06:40:48;;;;;;;0.25;0.25;;;;;;;-3.52;94.41;100193.38;4929710;29;20031;-73
2022/12/14 06:43:13;;;;;;;0.30;0.30;;;;;;;-3.78;94.57;100163.50;4912988;28;20050;-74
2022/12/14 06:45:38;;;;;;;0.20;0.20;;;;;;;-3.56;94.92;100196.97;4939956;28;20421;-73
2022/12/14 06:48:04;;;;;;;0.30;0.30;;;;;;;-3.58;95.79;100201.41;4946718;28;20480;-73
2022/12/14 06:50:30;;;;;;;0.30;0.30;;;;;;;-3.66;97.24;100201.66;4945958;28;20640;-73
2022/12/14 06:52:55;;;;;;;0.30;0.30;;;;;;;-3.77;97.39;100190.59;4940663;28;20074;-73
2022/12/14 06:55:21;;;;;;;0.30;0.30;;;;;;;-3.78;98.20;100199.38;4942530;28;20039;-73
2022/12/14 06:57:50;;;;;;;0.30;0.30;;;;;;;-3.86;98.96;100198.75;4930137;28;20031;-73
2022/12/14 07:00:16;;;;;;;0.30;0.30;;;;;;;-3.93;99.27;100200.66;4917663;29;20027;-73
2022/12/14 07:02:41;;;;;;;0.30;0.30;;;;;;;-3.98;100.00;100200.81;4927251;29;20118;-73
2022/12/14 07:05:07;;;;;;;0.30;0.30;;;;;;;-4.00;100.00;100202.59;4943870;28;20138;-73
2022/12/14 07:07:32;;;;;;;0.30;0.30;;;;;;;-4.07;100.00;100204.53;4952981;28;20035;-74
2022/12/14 07:09:58;;;;;;;0.30;0.30;;;;;;;-4.17;100.00;100196.97;4928394;28;20031;-73
2022/12/14 07:12:23;;;;;;;0.30;0.30;;;;;;;-4.13;100.00;100209.09;4927266;29;20035;-73
2022/12/14 07:14:49;;;;;;;0.30;0.30;;;;;;;-4.16;100.00;100214.44;4926960;29;20035;-73
2022/12/14 07:17:14;;;;;;;0.30;0.30;;;;;;;-4.27;100.00;100207.69;4941109;28;20410;-73
2022/12/14 07:19:39;;;;;;;0.30;0.30;;;;;;;-4.26;100.00;100211.19;4943168;28;20253;-73
2022/12/14 07:22:05;;;;;;;0.30;0.30;;;;;;;-4.35;100.00;100208.81;4955321;28;20078;-73
2022/12/14 07:24:30;;;;;;;0.30;0.30;;;;;;;-4.50;100.00;100197.81;4930796;29;20488;-73
2022/12/14 07:26:55;;;;;;;0.30;0.30;;;;;;;-4.49;100.00;100199.53;4928191;29;20043;-74
2022/12/14 07:29:21;;;;;;;0.30;0.30;;;;;;;-4.38;100.00;100218.47;4924770;28;20062;-74
2022/12/14 07:31:46;;;;;;;0.30;0.30;;;;;;;-4.58;100.00;100194.53;4940986;29;20118;-74
2022/12/14 07:34:12;;;;;;;0.30;0.30;;;;;;;-4.52;100.00;100221.44;4927886;28;20070;-74
2022/12/14 07:36:38;;;;;;;0.30;0.30;;;;;;;-4.79;100.00;100193.31;4912932;28;20421;-74
2022/12/14 07:39:03;;;;;;;0.30;0.30;;;;;;;-4.69;100.00;100215.78;4933523;28;20038;-74
2022/12/14 07:41:30;;;;;;;0.30;0.30;;;;;;;-4.80;100.00;100195.09;4925367;28;20043;-74
2022/12/14 07:43:59;;;;;;;0.30;0.30;;;;;;;-4.87;100.00;100198.75;4937061;28;20034;-73
2022/12/14 07:46:26;;;;;;;0.30;0.30;;;;;;;-4.90;100.00;100212.75;4925331;29;20081;-73
2022/12/14 07:48:53;;;;;;;0.30;0.30;;;;;;;-4.88;100.00;100216.19;4934116;29;20141;-74
2022/12/14 07:51:21;;;;;;;0.30;0.30;;;;;;;-4.93;100.00;100218.09;4924305;29;20042;-73
2022/12/14 07:53:48;;;;;;;0.30;0.30;;;;;;;-4.95;100.00;100217.25;4938182;28;20034;-73
2022/12/14 07:56:23;;;;;;;0.30;0.30;;;;;;;-4.92;100.00;100216.31;4945765;28;20035;-73
2022/12/14 07:58:49;;;;;;;0.30;0.30;;;;;;;-4.89;100.00;100221.47;4932177;29;20034;-73
2022/12/14 08:01:22;;;;;;;0.30;0.30;;;;;;;-4.90;100.00;100227.63;4930094;29;20079;-73
2022/12/14 08:03:50;;;;;;;0.30;0.30;;;;;;;-4.90;100.00;100220.59;4931226;29;20389;-73
2022/12/14 08:06:16;;;;;;;0.30;0.30;;;;;;;-4.98;100.00;100215.56;4941918;29;20090;-73
2022/12/14 08:08:41;;;;;;;0.30;0.30;;;;;;;-4.98;100.00;100219.94;4943828;28;20045;-73
2022/12/14 08:11:07;;;;;;;0.30;0.30;;;;;;;-4.96;100.00;100231.25;4925231;29;20035;-73
2022/12/14 08:13:32;;;;;;;0.30;0.30;;;;;;;-4.97;100.00;100229.53;4931994;29;20038;-73
2022/12/14 08:16:03;;;;;;;0.30;0.30;;;;;;;-5.04;100.00;100228.81;4948393;28;20486;-74
2022/12/14 08:18:28;;;;;;;0.30;0.30;;;;;;;-5.16;100.00;100221.22;4939075;28;21688;-74
2022/12/14 08:20:53;;;;;;;0.30;0.30;;;;;;;-5.31;100.00;100204.13;4928642;29;20042;-74
2022/12/14 08:23:18;;;;;;;0.30;0.30;;;;;;;-5.25;100.00;100231.91;4938821;28;20043;-73
2022/12/14 08:25:44;;;;;;;0.30;0.30;;;;;;;-5.31;100.00;100217.19;4931501;28;20094;-74
2022/12/14 08:28:09;;;;;;;0.30;0.30;;;;;;;-5.31;100.00;100231.16;4926581;28;20082;-74
2022/12/14 08:30:38;;;;;;;0.30;0.30;;;;;;;-5.37;100.00;100233.03;4918413;28;20159;-73
2022/12/14 08:33:04;;;;;;;0.30;0.30;;;;;;;-5.37;100.00;100243.50;4921365;28;20067;-75
2022/12/14 08:35:32;;;;;;;0.30;0.30;;;;;;;-5.28;100.00;100256.41;4929951;28;20577;-75
2022/12/14 08:37:57;;;;;;;0.30;0.30;;;;;;;-5.49;100.00;100219.34;4911849;28;20054;-75
2022/12/14 08:40:22;;;;;;;0.30;0.30;;;;;;;-5.43;100.00;100216.56;4927250;28;20053;-74
2022/12/14 08:42:51;;;;;;;0.30;0.30;;;;;;;-5.38;100.00;100231.31;4929998;29;20113;-75
2022/12/14 08:45:16;;;;;;;0.30;0.30;;;;;;;-5.35;100.00;100231.25;4954293;28;20039;-75
2022/12/14 08:47:41;;;;;;;0.30;0.30;;;;;;;-5.38;100.00;100237.41;4915309;28;20038;-75
2022/12/14 08:50:07;;;;;;;0.30;0.30;;;;;;;-5.15;100.00;100254.38;4906928;29;20042;-75
2022/12/14 08:52:33;;;;;;;0.30;0.30;;;;;;;-5.23;100.00;100217.91;4912737;28;20035;-74
2022/12/14 08:54:58;;;;;;;0.30;0.30;;;;;;;-4.94;100.00;100234.69;4947816;28;20027;-75
2022/12/14 08:57:24;;;;;;;0.30;0.30;;;;;;;-4.90;100.00;100240.72;4919774;28;20074;-75
2022/12/14 08:59:49;;;;;;;0.30;0.30;;;;;;;-4.76;100.00;100243.00;4930265;29;20475;-75
2022/12/14 09:02:14;;;;;;;0.30;0.30;;;;;;;-4.70;100.00;100250.72;4923299;29;20031;-74
2022/12/14 09:04:40;;;;;;;0.30;0.30;;;;;;;-4.82;100.00;100236.16;4930512;29;20027;-74
2022/12/14 09:07:05;;;;;;;0.30;0.30;;;;;;;-4.71;100.00;100251.63;4939882;28;20042;-75
2022/12/14 09:09:33;;;;;;;0.28;0.28;;;;;;;-4.80;100.00;100239.59;4937787;28;20059;-75
2022/12/14 09:12:02;;;;;;;0.30;0.30;;;;;;;-4.84;100.00;100230.94;4930518;29;20034;-75
2022/12/14 09:14:28;;;;;;;0.30;0.30;;;;;;;-4.76;100.00;100229.91;4930192;28;20032;-75
2022/12/14 09:16:53;;;;;;;0.30;0.30;;;;;;;-4.54;100.00;100253.84;4930874;29;20042;-75
2022/12/14 09:19:18;;;;;;;0.30;0.30;;;;;;;-4.60;100.00;100228.63;4950068;28;20054;-74
2022/12/14 09:21:44;;;;;;;0.30;0.30;;;;;;;-4.13;100.00;100232.69;4926483;28;20034;-74
2022/12/14 09:24:09;;;;;;;0.30;0.30;;;;;;;-3.63;98.55;100246.19;4939141;29;20138;-74
2022/12/14 09:26:34;;;;;;;0.40;0.40;;;;;;;-3.01;95.32;100267.97;4935623;29;20455;-74
2022/12/14 09:29:00;;;;;;;0.30;0.30;;;;;;;-2.62;93.22;100258.03;4938731;28;20023;-74
2022/12/14 09:31:26;;;;;;;0.30;0.30;;;;;;;-2.11;89.97;100240.53;4930363;28;20094;-72
2022/12/14 09:33:52;;;;;;;0.30;0.30;;;;;;;-1.21;84.98;100264.50;4947939;28;20028;-72
2022/12/14 09:36:19;;;;;;;0.35;0.35;;;;;;;-0.68;82.05;100229.94;4939714;28;20031;-72
2022/12/14 09:38:45;;;;;;;0.30;0.30;;;;;;;0.03;77.13;100257.78;4928514;29;20027;-71
2022/12/14 09:41:32;;;;;;;0.30;0.30;;;;;;;0.61;71.93;100259.59;4920162;28;20085;-71
2022/12/14 09:44:20;;;;;;;0.30;0.30;;;;;;;1.19;67.52;100249.88;4947222;28;20047;-71
2022/12/14 09:46:54;;;;;;;0.30;0.30;;;;;;;1.51;63.85;100252.75;4946927;28;20031;-71
2022/12/14 09:49:31;;;;;;;0.30;0.30;;;;;;;2.04;61.95;100248.28;4930054;28;20037;-71
2022/12/14 09:52:02;;;;;;;0.20;0.20;;;;;;;2.32;61.21;100244.19;4923089;29;20043;-71
2022/12/14 09:54:34;;;;;;;0.20;0.20;;;;;;;2.60;61.92;100220.69;4909792;29;20433;-71
2022/12/14 09:57:07;;;;;;;0.20;0.20;;;;;;;3.05;58.29;100226.16;4935101;28;20043;-71
2022/12/14 09:59:33;;;;;;;0.20;0.20;;;;;;;3.34;58.11;100231.59;4937968;29;20034;-71
2022/12/14 10:02:11;;;;;;;0.20;0.20;;;;;;;3.89;55.39;100215.09;4928097;29;20038;-71
2022/12/14 10:05:11;;;;;;;0.20;0.20;;;;;;;4.35;53.15;100234.53;4938621;28;20332;-72
2022/12/14 10:07:56;;;;;;;0.28;0.28;;;;;;;4.96;53.56;100231.59;4934500;28;20031;-72
2022/12/14 10:10:23;;;;;;;0.22;0.22;;;;;;;5.27;51.79;100234.94;4939740;28;20035;-72
2022/12/14 10:13:16;;;;;;;0.20;0.20;;;;;;;5.81;52.16;100231.38;4912955;29;20061;-72
2022/12/14 10:15:49;;;;;;;0.20;0.20;;;;;;;6.17;48.95;100239.66;4939244;28;20457;-72
2022/12/14 10:18:31;;;;;;;0.20;0.20;;;;;;;6.25;49.03;100234.63;4954213;28;20033;-72
2022/12/14 10:21:03;;;;;;;0.20;0.20;;;;;;;5.99;50.46;100207.09;4926156;28;20027;-72
2022/12/14 10:23:29;;;;;;;0.20;0.20;;;;;;;6.33;48.69;100230.59;4923600;28;20561;-72
2022/12/14 10:25:59;;;;;;;0.10;0.10;;;;;;;5.95;49.19;100208.25;4918087;28;20034;-72
2022/12/14 10:28:38;;;;;;;0.20;0.20;;;;;;;7.02;48.88;100231.00;4947725;28;20061;-72
2022/12/14 10:31:05;;;;;;;0.10;0.10;;;;;;;7.74;47.44;100226.63;4956110;28;20041;-72
2022/12/14 10:33:31;;;;;;;0.20;0.20;;;;;;;7.64;46.44;100213.13;4938454;28;20058;-72
2022/12/14 10:36:18;;;;;;;0.20;0.20;;;;;;;7.18;45.84;100237.88;4948686;28;20039;-72
2022/12/14 10:38:58;;;;;;;0.10;0.10;;;;;;;7.52;44.86;100238.06;4954971;28;20448;-72
2022/12/14 10:41:35;;;;;;;0.10;0.10;;;;;;;8.34;44.97;100239.88;4940170;28;20030;-72
2022/12/14 10:44:13;;;;;;;0.10;0.10;;;;;;;9.06;43.96;100232.47;4927297;29;20394;-72
2022/12/14 10:46:53;;;;;;;0.20;0.20;;;;;;;9.14;41.67;100211.28;4937483;28;20479;-72
2022/12/14 10:49:25;;;;;;;0.20;0.20;;;;;;;9.45;40.98;100232.84;4947319;28;20055;-72
2022/12/14 10:51:57;;;;;;;0.17;0.17;;;;;;;9.87;41.53;100231.19;4941856;28;20046;-72
2022/12/14 10:54:32;;;;;;;0.10;0.10;;;;;;;9.92;40.13;100231.66;4920667;29;20039;-72
2022/12/14 10:56:57;;;;;;;0.10;0.10;;;;;;;10.10;41.06;100228.38;4947316;28;20030;-72
2022/12/14 10:59:28;;;;;;;0.10;0.10;;;;;;;9.45;40.30;100224.81;4946708;28;20031;-72
2022/12/14 11:02:08;;;;;;;0.10;0.10;;;;;;;9.81;39.36;100219.16;4922704;29;20027;-72
2022/12/14 11:04:49;;;;;;;0.10;0.10;;;;;;;9.89;38.63;100224.75;4936311;28;20342;-72
2022/12/14 11:07:17;;;;;;;0.17;0.17;;;;;;;10.17;38.96;100226.88;4939347;28;20031;-73
2022/12/14 11:09:43;;;;;;;0.10;0.10;;;;;;;10.70;39.63;100227.75;4937743;28;20110;-73
2022/12/14 11:12:24;;;;;;;0.10;0.10;;;;;;;10.95;36.66;100208.47;4936764;28;20152;-73
2022/12/14 11:15:01;;;;;;;0.10;0.10;;;;;;;10.91;36.44;100206.19;4936371;29;20799;-73
2022/12/14 11:17:37;;;;;;;0.10;0.10;;;;;;;11.64;35.73;100210.38;4927427;28;20031;-73
2022/12/14 11:20:16;;;;;;;0.10;0.10;;;;;;;12.02;35.45;100229.34;4929080;29;20899;-73
2022/12/14 11:22:47;;;;;;;0.10;0.10;;;;;;;11.08;36.92;100208.19;4951444;28;20118;-73
2022/12/14 11:25:43;;;;;;;0.10;0.10;;;;;;;11.40;36.47;100225.94;4952379;28;20082;-74
2022/12/14 11:28:21;;;;;;;0.20;0.20;;;;;;;11.57;35.41;100228.91;4931652;29;20060;-73
2022/12/14 11:30:57;;;;;;;0.10;0.10;;;;;;;11.87;35.47;100226.22;4946018;28;20605;-73
2022/12/14 11:33:27;;;;;;;0.10;0.10;;;;;;;12.36;35.15;100228.84;4937210;28;20173;-73
2022/12/14 11:35:53;;;;;;;0.10;0.10;;;;;;;12.74;33.62;100222.44;4940624;28;20537;-73
2022/12/14 11:38:18;;;;;;;0.10;0.10;;;;;;;12.86;32.33;100220.41;4928273;29;20035;-73
2022/12/14 11:40:44;;;;;;;0.10;0.10;;;;;;;12.51;32.87;100199.59;4914901;28;20035;-73
2022/12/14 11:43:22;;;;;;;0.10;0.10;;;;;;;11.29;33.12;100203.72;4919372;28;20043;-72
2022/12/14 11:45:53;;;;;;;0.10;0.10;;;;;;;10.54;35.22;100214.81;4945731;28;20086;-73
2022/12/14 11:48:20;;;;;;;0.10;0.10;;;;;;;10.30;35.93;100206.06;4928490;29;20043;-74